createdAt,value
2019-05-14T00:03:46.784Z,99.90
2019-05-14T00:08:41.969Z,99.90
2019-05-14T00:13:36.896Z,99.90
2019-05-14T00:18:31.780Z,99.90
2019-05-14T00:23:26.336Z,99.90
2019-05-14T00:28:21.238Z,99.90
2019-05-14T00:33:16.074Z,99.90
2019-05-14T00:38:11.880Z,99.90
2019-05-14T00:43:06.597Z,99.90
2019-05-14T00:48:01.618Z,99.90
2019-05-14T00:52:56.620Z,99.90
2019-05-14T00:57:52.127Z,99.90
2019-05-14T01:02:46.864Z,99.90
2019-05-14T01:07:42.375Z,99.90
2019-05-14T01:12:37.091Z,99.90
2019-05-14T01:17:31.700Z,99.90
2019-05-14T01:22:26.262Z,99.90
2019-05-14T01:27:21.244Z,99.90
2019-05-14T01:32:15.847Z,99.90
2019-05-14T01:37:11.772Z,99.90
2019-05-14T01:42:06.811Z,99.90
2019-05-14T01:47:01.970Z,99.90
2019-05-14T01:51:56.903Z,99.90
2019-05-14T01:56:51.649Z,99.90
2019-05-14T02:01:46.312Z,99.90
2019-05-14T02:06:41.484Z,99.90
2019-05-14T02:11:36.330Z,99.90
2019-05-14T02:16:31.518Z,99.90
2019-05-14T02:21:26.309Z,99.90
2019-05-14T02:26:22.041Z,99.90
2019-05-14T02:31:20.077Z,99.90
2019-05-14T02:36:13.184Z,99.90
2019-05-14T02:41:09.899Z,99.90
2019-05-14T02:46:12.007Z,99.90
2019-05-14T02:51:00.602Z,99.90
2019-05-14T02:55:55.176Z,99.90
2019-05-14T03:00:49.861Z,99.90
2019-05-14T03:05:44.445Z,99.90
2019-05-14T03:10:40.186Z,99.90
2019-05-14T03:15:35.306Z,99.90
2019-05-14T03:20:29.881Z,99.90
2019-05-14T03:25:24.552Z,99.90
2019-05-14T03:30:22.824Z,99.90
2019-05-14T03:35:16.016Z,99.90
2019-05-14T03:40:10.798Z,99.90
2019-05-14T03:45:08.438Z,99.90
2019-05-14T03:50:02.502Z,99.90
2019-05-14T03:55:01.330Z,99.90
2019-05-14T03:59:53.538Z,99.90
2019-05-14T04:04:50.084Z,99.90
2019-05-14T04:09:49.307Z,99.90
2019-05-14T04:14:50.011Z,99.90
2019-05-14T04:19:49.254Z,99.90
2019-05-14T04:24:45.635Z,99.90
2019-05-14T04:29:42.420Z,99.90
2019-05-14T04:34:39.829Z,99.90
2019-05-14T04:39:33.980Z,99.90
2019-05-14T04:44:29.684Z,99.90
2019-05-14T04:49:24.939Z,99.90
2019-05-14T04:54:19.795Z,99.90
2019-05-14T04:59:14.439Z,99.90
2019-05-14T05:04:09.692Z,99.90
2019-05-14T05:09:09.153Z,99.60
2019-05-14T05:14:02.809Z,99.20
2019-05-14T05:18:59.461Z,98.20
2019-05-14T05:23:53.713Z,98.50
2019-05-14T05:29:02.928Z,99.30
2019-05-14T05:33:44.642Z,99.00
2019-05-14T05:38:39.757Z,98.90
2019-05-14T05:43:34.641Z,98.40
2019-05-14T05:48:29.297Z,98.80
2019-05-14T05:53:24.411Z,99.90
2019-05-14T05:58:20.884Z,99.20
2019-05-14T06:03:21.043Z,99.90
2019-05-14T06:08:15.231Z,99.50
2019-05-14T06:13:09.835Z,99.90
2019-05-14T06:18:15.052Z,99.90
2019-05-14T06:23:02.267Z,99.90
2019-05-14T06:27:58.989Z,99.90
2019-05-14T06:32:53.372Z,99.90
2019-05-14T06:37:49.314Z,99.90
2019-05-14T06:42:43.913Z,99.90
2019-05-14T06:47:38.585Z,99.90
2019-05-14T06:52:38.396Z,99.90
2019-05-14T06:57:33.479Z,99.90
2019-05-14T07:02:28.519Z,99.90
2019-05-14T07:07:23.545Z,99.90
2019-05-14T07:12:19.113Z,99.90
2019-05-14T07:17:14.275Z,99.90
2019-05-14T07:22:09.203Z,99.90
2019-05-14T07:27:03.770Z,99.90
2019-05-14T07:31:58.942Z,99.90
2019-05-14T07:36:53.730Z,99.90
2019-05-14T07:41:53.292Z,99.50
2019-05-14T07:46:53.272Z,98.10
2019-05-14T07:51:51.917Z,98.30
2019-05-14T07:56:50.891Z,97.80
2019-05-14T08:01:43.058Z,96.80
2019-05-14T08:06:39.397Z,96.10
2019-05-14T08:11:34.275Z,95.40
2019-05-14T08:16:29.224Z,95.10
2019-05-14T08:21:24.904Z,95.00
2019-05-14T08:26:19.551Z,94.00
2019-05-14T08:31:14.223Z,93.90
2019-05-14T08:36:09.129Z,93.60
2019-05-14T08:41:03.806Z,93.30
2019-05-14T08:45:58.936Z,93.40
2019-05-14T08:50:59.146Z,92.90
2019-05-14T08:55:54.251Z,90.10
2019-05-14T09:00:48.980Z,89.20
2019-05-14T09:05:43.621Z,90.30
2019-05-14T09:10:40.251Z,88.00
2019-05-14T09:15:34.718Z,86.40
2019-05-14T09:20:29.661Z,88.70
2019-05-14T09:25:25.053Z,84.90
2019-05-14T09:30:22.166Z,86.00
2019-05-14T09:35:18.884Z,89.60
2019-05-14T09:40:13.500Z,89.20
2019-05-14T09:45:11.070Z,85.00
2019-05-14T09:50:16.323Z,79.70
2019-05-14T09:55:04.327Z,83.70
2019-05-14T09:59:59.043Z,86.30
2019-05-14T10:04:53.634Z,84.20
2019-05-14T10:09:49.256Z,81.70
2019-05-14T10:14:44.147Z,81.30
2019-05-14T10:19:39.465Z,82.00
2019-05-14T10:24:34.318Z,80.70
2019-05-14T10:29:29.191Z,83.70
2019-05-14T10:34:25.701Z,83.10
2019-05-14T10:39:20.648Z,80.00
2019-05-14T10:44:15.420Z,80.00
2019-05-14T10:49:23.506Z,83.90
2019-05-14T10:54:22.356Z,83.40
2019-05-14T10:59:11.383Z,81.30
2019-05-14T11:04:06.001Z,84.40
2019-05-14T11:09:00.627Z,80.80
2019-05-14T11:13:55.547Z,80.50
2019-05-14T11:18:51.128Z,82.00
2019-05-14T11:23:51.054Z,79.10
2019-05-14T11:28:49.128Z,76.00
2019-05-14T11:33:43.827Z,75.50
2019-05-14T11:38:45.072Z,79.80
2019-05-14T11:43:40.155Z,80.70
2019-05-14T11:48:34.867Z,74.80
2019-05-14T11:53:29.750Z,78.30
2019-05-14T11:58:24.378Z,76.10
2019-05-14T12:03:19.885Z,77.60
2019-05-14T12:08:14.660Z,77.20
2019-05-14T12:13:09.353Z,78.50
2019-05-14T12:18:03.927Z,79.30
2019-05-14T12:22:59.326Z,81.00
2019-05-14T12:27:53.998Z,83.90
2019-05-14T12:32:50.041Z,83.60
2019-05-14T12:37:47.582Z,84.00
2019-05-14T12:42:45.793Z,82.00
2019-05-14T12:47:40.713Z,83.40
2019-05-14T12:52:35.551Z,82.30
2019-05-14T12:57:30.244Z,81.20
2019-05-14T13:02:24.893Z,81.20
2019-05-14T13:07:25.578Z,79.50
2019-05-14T13:12:21.538Z,80.30
2019-05-14T13:17:18.524Z,78.00
2019-05-14T13:22:15.069Z,80.90
2019-05-14T13:27:09.665Z,82.20
2019-05-14T13:32:04.591Z,82.80
2019-05-14T13:36:59.817Z,81.70
2019-05-14T13:41:54.510Z,80.80
2019-05-14T13:46:49.471Z,84.50
2019-05-14T13:51:44.068Z,86.00
2019-05-14T13:56:39.091Z,84.90
2019-05-14T14:01:37.264Z,84.20
2019-05-14T14:06:32.719Z,83.30
2019-05-14T14:11:28.627Z,78.20
2019-05-14T14:16:23.925Z,80.50
2019-05-14T14:21:19.780Z,79.30
2019-05-14T14:26:18.228Z,80.00
2019-05-14T14:31:12.601Z,80.10
2019-05-14T14:36:07.172Z,82.40
2019-05-14T14:41:01.775Z,80.40
2019-05-14T14:45:59.206Z,80.80
2019-05-14T14:50:58.622Z,78.70
2019-05-14T14:55:53.080Z,76.10
2019-05-14T15:00:48.777Z,78.10
2019-05-14T15:05:43.780Z,81.10
2019-05-14T15:10:39.539Z,82.90
2019-05-14T15:15:34.498Z,84.70
2019-05-14T15:20:29.364Z,86.90
2019-05-14T15:25:25.879Z,87.20
2019-05-14T15:30:20.755Z,88.20
2019-05-14T15:35:15.785Z,86.90
2019-05-14T15:40:10.716Z,86.80
2019-05-14T15:45:05.785Z,86.50
2019-05-14T15:50:00.379Z,85.70
2019-05-14T15:54:54.965Z,86.30
2019-05-14T15:59:49.570Z,86.10
2019-05-14T16:04:44.158Z,84.30
2019-05-14T16:09:39.665Z,88.20
2019-05-14T16:14:34.614Z,88.50
2019-05-14T16:19:29.201Z,86.70
2019-05-14T16:24:23.776Z,86.80
2019-05-14T16:29:19.212Z,87.20
2019-05-14T16:34:15.064Z,88.50
2019-05-14T16:39:09.880Z,88.70
2019-05-14T16:44:05.207Z,87.20
2019-05-14T16:48:59.888Z,88.20
2019-05-14T16:53:54.474Z,88.60
2019-05-14T16:58:49.071Z,88.50
2019-05-14T17:03:43.663Z,89.90
2019-05-14T17:08:39.414Z,87.50
2019-05-14T17:13:34.232Z,86.50
2019-05-14T17:18:29.069Z,84.10
2019-05-14T17:23:23.664Z,82.60
2019-05-14T17:28:18.241Z,89.30
2019-05-14T17:33:12.833Z,90.40
2019-05-14T17:38:09.202Z,90.70
2019-05-14T17:43:03.749Z,90.90
2019-05-14T17:47:58.571Z,91.30
2019-05-14T17:52:56.148Z,91.20
2019-05-14T17:57:57.414Z,91.40
2019-05-14T18:02:48.422Z,91.30
2019-05-14T18:07:42.461Z,91.10
2019-05-14T18:12:39.647Z,91.50
2019-05-14T18:17:33.442Z,91.40
2019-05-14T18:22:28.644Z,91.80
2019-05-14T18:27:23.690Z,92.30
2019-05-14T18:32:19.044Z,90.30
2019-05-14T18:37:14.076Z,91.50
2019-05-14T18:42:08.759Z,91.90
2019-05-14T18:47:03.422Z,92.20
2019-05-14T18:51:59.274Z,91.90
2019-05-14T18:56:54.204Z,91.80
2019-05-14T19:01:50.035Z,92.00
2019-05-14T19:06:45.140Z,92.30
2019-05-14T19:11:39.750Z,92.50
2019-05-14T19:16:34.994Z,92.20
2019-05-14T19:21:29.603Z,91.50
2019-05-14T19:26:33.371Z,90.40
2019-05-14T19:31:20.519Z,90.50
2019-05-14T19:36:15.120Z,91.40
2019-05-14T19:41:09.869Z,94.80
2019-05-14T19:46:04.597Z,97.90
2019-05-14T19:50:59.225Z,99.30
2019-05-14T19:55:53.821Z,99.90
2019-05-14T20:00:48.862Z,99.90
2019-05-14T20:05:43.785Z,99.90
2019-05-14T20:10:38.936Z,98.10
2019-05-14T20:15:33.861Z,97.00
2019-05-14T20:20:28.951Z,96.10
2019-05-14T20:25:23.880Z,96.30
2019-05-14T20:30:18.923Z,96.00
2019-05-14T20:35:28.324Z,96.00
2019-05-14T20:40:11.574Z,96.30
2019-05-14T20:45:10.762Z,96.70
2019-05-14T20:50:08.950Z,97.20
2019-05-14T20:55:05.789Z,97.50
2019-05-14T21:00:00.373Z,98.00
2019-05-14T21:04:55.946Z,98.40
2019-05-14T21:09:51.275Z,98.40
2019-05-14T21:14:48.867Z,98.50
2019-05-14T21:19:42.204Z,98.90
2019-05-14T21:24:39.210Z,99.10
2019-05-14T21:29:33.195Z,99.80
2019-05-14T21:34:28.236Z,99.90
2019-05-14T21:39:23.121Z,99.90
2019-05-14T21:44:18.852Z,99.90
2019-05-14T21:49:13.553Z,99.90
2019-05-14T21:54:09.475Z,99.90
2019-05-14T21:59:04.444Z,99.90
2019-05-14T22:03:59.362Z,99.90
2019-05-14T22:08:54.264Z,99.90
2019-05-14T22:13:49.590Z,99.90
2019-05-14T22:18:44.498Z,99.90
2019-05-14T22:23:39.094Z,99.90
2019-05-14T22:28:33.687Z,99.90
2019-05-14T22:33:28.512Z,99.90
2019-05-14T22:38:23.327Z,99.90
2019-05-14T22:43:18.270Z,99.90
2019-05-14T22:48:13.176Z,99.90
2019-05-14T22:53:09.346Z,99.90
2019-05-14T22:58:04.214Z,99.90
2019-05-14T23:02:58.800Z,99.90
2019-05-14T23:07:53.383Z,99.90
2019-05-14T23:12:48.829Z,99.90
2019-05-14T23:17:43.822Z,99.90
2019-05-14T23:22:39.311Z,99.90
2019-05-14T23:27:33.962Z,99.90
2019-05-14T23:32:28.677Z,99.90
2019-05-14T23:37:23.433Z,99.90
2019-05-14T23:42:18.643Z,99.90
2019-05-14T23:47:13.504Z,99.90
2019-05-14T23:52:08.076Z,99.90
2019-05-14T23:57:02.682Z,99.90
